Time;durP1;ratioP1;P1;durP2;ratioP2;P2;SDS_P1;SDS_P2;PMS_P1;PMS_P2;Temp;Humidity;BMP_temperature;BMP_pressure;BME280_temperature;BME280_humidity;BME280_pressure;Samples;Min_cycle;Max_cycle;Signal;HPM_P1;HPM_P2
2022/03/21 00:01:02;;;;;;;;;;;22.30;49.40;;;;;;5096724;28;1050;-50
2022/03/21 00:03:29;;;;;;;;;;;22.30;49.30;;;;;;5096586;28;1974;-45
2022/03/21 00:05:56;;;;;;;;;;;22.30;49.50;;;;;;5096956;28;1016;-42
2022/03/21 00:08:24;;;;;;;;;;;22.30;50.50;;;;;;5096416;28;984;-43
2022/03/21 00:10:52;;;;;;;;;;;22.30;49.30;;;;;;5096592;28;1015;-42
2022/03/21 00:13:19;;;;;;;;;;;22.30;49.30;;;;;;5097122;28;1000;-43
2022/03/21 00:15:46;;;;;;;;;;;22.30;49.30;;;;;;5096759;28;940;-42
2022/03/21 00:18:14;;;;;;;;;;;22.30;49.30;;;;;;5097372;28;949;-43
2022/03/21 00:20:41;;;;;;;;;;;22.30;49.40;;;;;;5097075;28;1019;-43
2022/03/21 00:23:08;;;;;;;;;;;22.30;49.30;;;;;;5096884;28;1909;-42
2022/03/21 00:25:36;;;;;;;;;;;22.30;49.30;;;;;;5099340;28;1041;-44
2022/03/21 00:28:03;;;;;;;;;;;22.30;49.40;;;;;;5100198;28;996;-41
2022/03/21 00:30:30;;;;;;;;;;;22.30;49.30;;;;;;5099970;28;1004;-43
2022/03/21 00:32:57;;;;;;;;;;;22.20;49.40;;;;;;5100699;28;943;-42
2022/03/21 00:35:24;;;;;;;;;;;22.20;49.30;;;;;;5100390;28;925;-41
2022/03/21 00:37:51;;;;;;;;;;;22.30;49.30;;;;;;5101127;28;1010;-43
2022/03/21 00:40:18;;;;;;;;;;;22.20;49.30;;;;;;5100466;28;1001;-42
2022/03/21 00:42:47;;;;;;;;;;;22.20;49.30;;;;;;5101154;28;1975;-45
2022/03/21 00:45:15;;;;;;;;;;;22.20;49.30;;;;;;5101075;28;928;-44
2022/03/21 00:47:42;;;;;;;;;;;22.20;49.30;;;;;;5100626;28;997;-45
2022/03/21 00:50:10;;;;;;;;;;;22.20;49.20;;;;;;5100187;28;1088;-43
2022/03/21 00:52:40;;;;;;;;;;;22.20;49.40;;;;;;5100489;28;1007;-45
2022/03/21 00:55:07;;;;;;;;;;;22.20;49.20;;;;;;5100422;28;943;-43
2022/03/21 00:57:34;;;;;;;;;;;22.20;49.20;;;;;;5100231;28;924;-45
2022/03/21 01:00:02;;;;;;;;;;;22.20;49.30;;;;;;5099874;28;1000;-42
2022/03/21 01:02:29;;;;;;;;;;;22.20;49.30;;;;;;5099753;28;1984;-43
2022/03/21 01:04:56;;;;;;;;;;;22.20;49.20;;;;;;5099766;28;1913;-45
2022/03/21 01:07:22;;;;;;;;;;;22.20;49.30;;;;;;5099681;28;983;-43
2022/03/21 01:09:49;;;;;;;;;;;22.20;49.30;;;;;;5100008;28;1181;-45
2022/03/21 01:12:16;;;;;;;;;;;22.20;49.20;;;;;;5099739;28;1027;-45
2022/03/21 01:14:42;;;;;;;;;;;22.20;49.30;;;;;;5099325;28;1141;-43
2022/03/21 01:17:10;;;;;;;;;;;22.20;49.20;;;;;;5099816;28;1013;-43
2022/03/21 01:19:37;;;;;;;;;;;22.20;49.30;;;;;;5099514;28;988;-43
2022/03/21 01:22:05;;;;;;;;;;;22.20;49.30;;;;;;5099719;28;1977;-43
2022/03/21 01:24:32;;;;;;;;;;;22.20;49.30;;;;;;5099576;28;976;-46
2022/03/21 01:26:59;;;;;;;;;;;22.20;49.30;;;;;;5099434;28;936;-44
2022/03/21 01:29:26;;;;;;;;;;;22.10;49.30;;;;;;5099383;28;1132;-43
2022/03/21 01:31:53;;;;;;;;;;;22.20;49.30;;;;;;5099312;28;1001;-42
2022/03/21 01:34:21;;;;;;;;;;;22.20;49.30;;;;;;5099221;28;1001;-44
2022/03/21 01:36:47;;;;;;;;;;;22.20;49.30;;;;;;5098205;28;1055;-42
2022/03/21 01:39:14;;;;;;;;;;;22.20;49.40;;;;;;5099254;28;944;-42
2022/03/21 01:41:41;;;;;;;;;;;22.10;49.30;;;;;;5099191;28;1078;-45
2022/03/21 01:44:09;;;;;;;;;;;22.10;49.30;;;;;;5099224;28;1910;-45
2022/03/21 01:46:37;;;;;;;;;;;22.10;49.30;;;;;;5099350;28;1055;-43
2022/03/21 01:49:05;;;;;;;;;;;22.10;49.30;;;;;;5099091;28;1030;-45
2022/03/21 01:51:34;;;;;;;;;;;22.10;49.30;;;;;;5098663;28;968;-45
2022/03/21 01:56:47;;;;;;;;;;;22.10;49.20;;;;;;5099113;28;1018;-46
2022/03/21 01:59:15;;;;;;;;;;;22.10;49.30;;;;;;5098614;28;1019;-41
2022/03/21 02:01:43;;;;;;;;;;;22.10;49.30;;;;;;5100979;28;985;-42
2022/03/21 02:04:10;;;;;;;;;;;22.10;49.30;;;;;;5099278;28;1909;-41
2022/03/21 02:06:38;;;;;;;;;;;22.10;49.30;;;;;;5099182;28;1125;-41
2022/03/21 02:09:06;;;;;;;;;;;22.10;49.40;;;;;;5098884;28;940;-43
2022/03/21 02:11:34;;;;;;;;;;;22.10;49.30;;;;;;5099016;28;1072;-41
2022/03/21 02:14:04;;;;;;;;;;;22.10;49.30;;;;;;5098944;28;1009;-42
2022/03/21 02:16:32;;;;;;;;;;;22.10;49.30;;;;;;5098944;28;973;-45
2022/03/21 02:19:01;;;;;;;;;;;22.10;49.30;;;;;;5098623;28;1038;-41
2022/03/21 02:21:33;;;;;;;;;;;22.00;49.40;;;;;;5099000;28;1353;-45
2022/03/21 02:24:03;;;;;;;;;;;22.10;49.40;;;;;;5098220;28;1978;-45
2022/03/21 02:26:32;;;;;;;;;;;22.00;49.30;;;;;;5098305;28;987;-42
2022/03/21 02:28:59;;;;;;;;;;;22.00;49.40;;;;;;5098094;28;1122;-42
2022/03/21 02:31:27;;;;;;;;;;;22.10;49.40;;;;;;5098046;28;1004;-41
2022/03/21 02:33:54;;;;;;;;;;;22.10;49.40;;;;;;5098517;28;1039;-42
2022/03/21 02:36:22;;;;;;;;;;;22.10;49.40;;;;;;5098160;28;924;-41
2022/03/21 02:38:48;;;;;;;;;;;22.00;49.40;;;;;;5098575;28;1016;-42
2022/03/21 02:41:16;;;;;;;;;;;22.00;49.40;;;;;;5098033;28;1015;-41
2022/03/21 02:43:51;;;;;;;;;;;22.00;49.40;;;;;;5098255;28;1902;-44
2022/03/21 02:46:17;;;;;;;;;;;22.00;49.40;;;;;;5098230;28;1135;-42
2022/03/21 02:48:45;;;;;;;;;;;22.00;49.40;;;;;;5098191;28;1036;-41
2022/03/21 02:51:12;;;;;;;;;;;22.00;49.40;;;;;;5097892;28;1166;-44
2022/03/21 02:53:39;;;;;;;;;;;22.00;49.50;;;;;;5097559;28;983;-42
2022/03/21 02:56:06;;;;;;;;;;;21.90;49.50;;;;;;5098190;28;984;-41
2022/03/21 02:58:33;;;;;;;;;;;21.90;49.50;;;;;;5097905;28;992;-42
2022/03/21 03:01:07;;;;;;;;;;;21.90;49.50;;;;;;5097717;28;1015;-42
2022/03/21 03:03:34;;;;;;;;;;;21.90;49.60;;;;;;5097836;28;1983;-42
2022/03/21 03:06:02;;;;;;;;;;;21.90;49.50;;;;;;5099154;28;1080;-43
2022/03/21 03:08:29;;;;;;;;;;;21.90;49.50;;;;;;5097397;28;1008;-42
2022/03/21 03:10:56;;;;;;;;;;;21.90;49.50;;;;;;5098258;28;920;-41
2022/03/21 03:13:22;;;;;;;;;;;21.90;49.50;;;;;;5097449;28;1012;-41
2022/03/21 03:15:49;;;;;;;;;;;21.90;49.60;;;;;;5097567;28;1023;-42
2022/03/21 03:18:17;;;;;;;;;;;21.90;49.60;;;;;;5097299;28;1833;-45
2022/03/21 03:20:47;;;;;;;;;;;21.90;49.50;;;;;;5097785;28;1007;-42
2022/03/21 03:23:14;;;;;;;;;;;21.90;49.50;;;;;;5097484;28;1979;-41
2022/03/21 03:25:41;;;;;;;;;;;21.90;49.50;;;;;;5097615;28;1018;-43
2022/03/21 03:28:08;;;;;;;;;;;21.90;49.60;;;;;;5096341;28;971;-44
2022/03/21 03:30:35;;;;;;;;;;;21.90;49.60;;;;;;5096972;28;972;-43
2022/03/21 03:33:02;;;;;;;;;;;21.90;50.70;;;;;;5096925;28;1003;-42
2022/03/21 03:35:30;;;;;;;;;;;21.90;49.60;;;;;;5096939;28;995;-41
2022/03/21 03:37:57;;;;;;;;;;;21.80;49.60;;;;;;5096802;28;1389;-43
2022/03/21 03:40:23;;;;;;;;;;;21.90;49.70;;;;;;5097431;28;957;-43
2022/03/21 03:42:50;;;;;;;;;;;21.80;49.60;;;;;;5097247;28;1975;-42
2022/03/21 03:45:17;;;;;;;;;;;21.80;49.60;;;;;;5097327;28;988;-41
2022/03/21 03:47:44;;;;;;;;;;;21.90;49.60;;;;;;5097810;28;996;-41
2022/03/21 03:50:12;;;;;;;;;;;21.90;49.70;;;;;;5097027;28;1062;-42
2022/03/21 03:52:45;;;;;;;;;;;21.90;49.60;;;;;;5096731;28;944;-42
2022/03/21 03:55:12;;;;;;;;;;;21.90;49.70;;;;;;5096779;28;1079;-44
2022/03/21 03:57:39;;;;;;;;;;;21.80;49.60;;;;;;5096983;28;992;-42
2022/03/21 04:00:06;;;;;;;;;;;21.80;49.60;;;;;;5098854;28;1090;-42
2022/03/21 04:03:44;;;;;;;;;;;21.80;49.60;;;;;;5100756;28;1901;-41
2022/03/21 04:05:21;;;;;;;;;;;21.80;49.60;;;;;;5101235;28;1099;-43
2022/03/21 04:07:51;;;;;;;;;;;21.80;49.50;;;;;;5101231;28;1008;-42
2022/03/21 04:10:18;;;;;;;;;;;21.90;49.60;;;;;;5101118;28;992;-42
2022/03/21 04:12:46;;;;;;;;;;;21.80;49.60;;;;;;5101518;28;1012;-43
2022/03/21 04:15:13;;;;;;;;;;;21.80;49.60;;;;;;5100859;28;975;-43
2022/03/21 04:17:40;;;;;;;;;;;21.80;49.70;;;;;;5100838;28;1083;-41
2022/03/21 04:20:08;;;;;;;;;;;21.80;49.60;;;;;;5101704;28;996;-46
2022/03/21 04:22:35;;;;;;;;;;;21.80;49.70;;;;;;5101018;28;1048;-43
2022/03/21 04:25:03;;;;;;;;;;;21.80;49.60;;;;;;5100885;28;1906;-45
2022/03/21 04:27:30;;;;;;;;;;;21.80;49.60;;;;;;5100142;28;1021;-44
2022/03/21 04:29:57;;;;;;;;;;;21.80;49.60;;;;;;5099938;28;1033;-44
2022/03/21 04:32:24;;;;;;;;;;;21.80;49.60;;;;;;5100611;28;1019;-41
2022/03/21 04:34:50;;;;;;;;;;;21.80;49.50;;;;;;5100398;28;955;-41
2022/03/21 04:37:17;;;;;;;;;;;21.80;49.60;;;;;;5100317;28;960;-44
2022/03/21 04:39:44;;;;;;;;;;;21.80;49.50;;;;;;5100452;28;1088;-43
2022/03/21 04:42:12;;;;;;;;;;;21.80;49.50;;;;;;5100026;28;1077;-42
2022/03/21 04:44:39;;;;;;;;;;;21.80;49.50;;;;;;5100082;28;1989;-42
2022/03/21 04:47:07;;;;;;;;;;;21.80;49.50;;;;;;5099763;28;1388;-43
2022/03/21 04:49:33;;;;;;;;;;;21.80;49.50;;;;;;5099819;28;1247;-42
2022/03/21 04:52:00;;;;;;;;;;;21.80;49.70;;;;;;5099996;28;1138;-44
2022/03/21 04:54:28;;;;;;;;;;;21.80;49.70;;;;;;5099612;28;944;-45
2022/03/21 04:56:55;;;;;;;;;;;21.80;49.70;;;;;;5099863;28;968;-46
2022/03/21 04:59:22;;;;;;;;;;;21.80;49.70;;;;;;5099230;28;1005;-42
2022/03/21 05:01:49;;;;;;;;;;;21.80;49.60;;;;;;5099702;28;1143;-42
2022/03/21 05:04:16;;;;;;;;;;;21.80;49.50;;;;;;5099546;28;1902;-42
2022/03/21 05:06:43;;;;;;;;;;;21.80;50.70;;;;;;5099651;28;1371;-43
2022/03/21 05:09:09;;;;;;;;;;;21.90;49.60;;;;;;5099656;28;1019;-43
2022/03/21 05:11:36;;;;;;;;;;;21.90;49.20;;;;;;5098905;28;1022;-44
2022/03/21 05:14:03;;;;;;;;;;;21.90;49.30;;;;;;5099422;28;1015;-41
2022/03/21 05:16:32;;;;;;;;;;;21.80;49.40;;;;;;5098617;28;960;-44
2022/03/21 05:18:59;;;;;;;;;;;21.80;49.50;;;;;;5098857;28;1012;-43
2022/03/21 05:21:26;;;;;;;;;;;21.80;49.50;;;;;;5099157;28;1020;-43
2022/03/21 05:32:11;;;;;;;;;;;21.80;49.70;;;;;;5097954;28;684;-42
2022/03/21 05:37:22;;;;;;;;;;;21.80;49.50;;;;;;5097517;28;825;-43
2022/03/21 05:42:33;;;;;;;;;;;21.80;49.50;;;;;;5098370;28;907;-42
2022/03/21 05:45:00;;;;;;;;;;;21.70;49.60;;;;;;5098437;28;1976;-42
2022/03/21 05:47:28;;;;;;;;;;;21.80;49.70;;;;;;5098131;28;1000;-44
2022/03/21 05:49:54;;;;;;;;;;;21.80;49.70;;;;;;5097615;28;1156;-41
2022/03/21 05:52:21;;;;;;;;;;;21.70;49.70;;;;;;5097718;28;1002;-42
2022/03/21 05:54:48;;;;;;;;;;;21.70;49.80;;;;;;5097767;28;1007;-42
2022/03/21 05:57:14;;;;;;;;;;;21.70;49.70;;;;;;5097933;28;912;-43
2022/03/21 06:02:26;;;;;;;;;;;21.70;49.80;;;;;;5097148;28;714;-42
2022/03/21 06:04:54;;;;;;;;;;;21.70;49.80;;;;;;5096854;28;1905;-42
2022/03/21 06:07:21;;;;;;;;;;;21.70;49.80;;;;;;5096880;28;1207;-42
2022/03/21 06:09:48;;;;;;;;;;;21.80;49.90;;;;;;5097760;28;932;-42
2022/03/21 06:12:15;;;;;;;;;;;21.70;49.80;;;;;;5096932;28;1007;-41
2022/03/21 06:14:42;;;;;;;;;;;21.70;49.80;;;;;;5096609;28;1016;-42
2022/03/21 06:17:08;;;;;;;;;;;21.70;49.80;;;;;;5096539;28;1367;-42
2022/03/21 06:19:35;;;;;;;;;;;21.70;49.80;;;;;;5095959;28;951;-41
2022/03/21 06:22:04;;;;;;;;;;;21.70;49.80;;;;;;5095522;28;897;-41
2022/03/21 06:24:30;;;;;;;;;;;21.70;49.90;;;;;;5095802;28;1902;-41
2022/03/21 06:26:57;;;;;;;;;;;21.70;49.90;;;;;;5095281;28;885;-42
2022/03/21 06:29:24;;;;;;;;;;;21.70;49.80;;;;;;5094900;28;1018;-45
2022/03/21 06:31:51;;;;;;;;;;;21.70;49.90;;;;;;5093754;28;998;-45
2022/03/21 06:34:18;;;;;;;;;;;21.70;49.80;;;;;;5094789;28;1050;-41
2022/03/21 06:36:44;;;;;;;;;;;21.80;49.80;;;;;;5094672;28;1409;-44
2022/03/21 06:39:12;;;;;;;;;;;21.80;49.80;;;;;;5095698;28;1126;-42
2022/03/21 06:41:42;;;;;;;;;;;21.80;49.80;;;;;;5096404;28;944;-42
2022/03/21 06:44:09;;;;;;;;;;;21.70;49.80;;;;;;5095408;28;1979;-43
2022/03/21 06:46:36;;;;;;;;;;;21.70;49.70;;;;;;5095654;28;960;-42
2022/03/21 06:49:03;;;;;;;;;;;21.70;49.70;;;;;;5095774;28;1098;-41
2022/03/21 06:51:29;;;;;;;;;;;21.70;49.80;;;;;;5095952;28;1134;-45
2022/03/21 06:53:56;;;;;;;;;;;21.80;49.80;;;;;;5096022;28;1019;-42
2022/03/21 06:56:25;;;;;;;;;;;21.80;49.70;;;;;;5096494;28;1126;-42
2022/03/21 06:58:52;;;;;;;;;;;21.80;49.70;;;;;;5096500;28;969;-45
2022/03/21 07:01:19;;;;;;;;;;;21.80;49.70;;;;;;5096050;28;949;-41
2022/03/21 07:03:45;;;;;;;;;;;21.80;49.70;;;;;;5095854;28;1913;-42
2022/03/21 07:06:12;;;;;;;;;;;21.80;49.70;;;;;;5096289;28;1024;-46
2022/03/21 07:08:39;;;;;;;;;;;21.80;49.70;;;;;;5095460;28;1467;-42
2022/03/21 07:11:12;;;;;;;;;;;21.80;50.50;;;;;;5096727;28;1967;-44
2022/03/21 07:13:40;;;;;;;;;;;21.80;49.70;;;;;;5096421;28;982;-42
2022/03/21 07:16:08;;;;;;;;;;;21.80;49.80;;;;;;5095495;28;1131;-43
2022/03/21 07:18:34;;;;;;;;;;;21.80;49.70;;;;;;5095913;28;1016;-45
2022/03/21 07:21:01;;;;;;;;;;;21.80;49.70;;;;;;5095874;28;998;-45
2022/03/21 07:23:28;;;;;;;;;;;21.80;49.70;;;;;;5095428;28;977;-41
2022/03/21 07:25:55;;;;;;;;;;;21.80;49.70;;;;;;5096215;28;1983;-42
2022/03/21 07:28:21;;;;;;;;;;;21.80;49.70;;;;;;5094866;28;988;-41
2022/03/21 07:30:50;;;;;;;;;;;21.80;49.70;;;;;;5094840;28;1154;-45
2022/03/21 07:33:16;;;;;;;;;;;21.80;49.70;;;;;;5094762;28;1099;-44
2022/03/21 07:35:43;;;;;;;;;;;21.80;49.60;;;;;;5095355;28;995;-43
2022/03/21 07:38:10;;;;;;;;;;;21.80;49.60;;;;;;5095797;28;1032;-47
2022/03/21 07:40:37;;;;;;;;;;;21.80;49.60;;;;;;5093629;28;1344;-47
2022/03/21 07:43:03;;;;;;;;;;;21.80;49.70;;;;;;5094500;28;1029;-42
2022/03/21 07:48:16;;;;;;;;;;;21.80;49.70;;;;;;5095080;28;1003;-46
2022/03/21 07:50:42;;;;;;;;;;;21.80;49.70;;;;;;5095379;28;1177;-45
2022/03/21 07:53:10;;;;;;;;;;;21.80;49.70;;;;;;5095765;28;992;-45
2022/03/21 07:55:36;;;;;;;;;;;21.80;49.80;;;;;;5096456;28;944;-46
2022/03/21 07:58:04;;;;;;;;;;;21.80;49.70;;;;;;5096608;28;1145;-41
2022/03/21 08:00:31;;;;;;;;;;;22.00;49.50;;;;;;5097034;28;932;-41
2022/03/21 08:02:58;;;;;;;;;;;22.00;49.20;;;;;;5096982;28;1106;-41
2022/03/21 08:05:28;;;;;;;;;;;22.00;49.20;;;;;;5097332;28;1898;-41
2022/03/21 08:07:55;;;;;;;;;;;22.10;49.20;;;;;;5095883;28;956;-41
2022/03/21 08:10:22;;;;;;;;;;;22.10;49.50;;;;;;5097531;28;1115;-41
2022/03/21 08:12:49;;;;;;;;;;;22.10;49.70;;;;;;5097393;28;932;-41
2022/03/21 08:15:17;;;;;;;;;;;22.20;49.70;;;;;;5096510;28;1008;-39
2022/03/21 08:17:52;;;;;;;;;;;22.20;49.90;;;;;;5096196;28;1430;-42
2022/03/21 08:20:20;;;;;;;;;;;22.20;49.80;;;;;;5096463;28;1011;-40
2022/03/21 08:22:48;;;;;;;;;;;22.20;50.10;;;;;;5095818;28;994;-40
2022/03/21 08:25:15;;;;;;;;;;;22.20;50.00;;;;;;5096325;28;1977;-42
2022/03/21 08:27:43;;;;;;;;;;;22.10;50.10;;;;;;5096236;28;941;-42
2022/03/21 08:30:10;;;;;;;;;;;22.10;50.10;;;;;;5095753;28;1111;-43
2022/03/21 08:32:37;;;;;;;;;;;22.20;50.40;;;;;;5095934;28;884;-43
2022/03/21 08:35:04;;;;;;;;;;;22.10;50.40;;;;;;5096227;28;1007;-43
2022/03/21 08:37:30;;;;;;;;;;;22.20;50.30;;;;;;5095775;28;984;-42
2022/03/21 08:39:58;;;;;;;;;;;22.20;50.40;;;;;;5096451;28;1059;-43
2022/03/21 08:42:28;;;;;;;;;;;22.20;50.50;;;;;;5096067;28;1010;-43
2022/03/21 08:44:55;;;;;;;;;;;22.20;50.50;;;;;;5096440;28;1918;-43
2022/03/21 08:47:22;;;;;;;;;;;22.20;50.70;;;;;;5100010;28;870;-43
2022/03/21 08:49:48;;;;;;;;;;;22.30;51.10;;;;;;5099769;28;1202;-42
2022/03/21 08:52:15;;;;;;;;;;;22.40;50.80;;;;;;5100364;28;935;-42
2022/03/21 08:54:42;;;;;;;;;;;22.40;50.30;;;;;;5098893;28;1409;-42
2022/03/21 08:57:10;;;;;;;;;;;22.40;50.70;;;;;;5100400;28;1428;-43
2022/03/21 08:59:37;;;;;;;;;;;22.30;50.40;;;;;;5098673;28;966;-42
2022/03/21 09:02:04;;;;;;;;;;;22.30;50.40;;;;;;5097820;28;1413;-42
2022/03/21 09:04:31;;;;;;;;;;;22.30;50.30;;;;;;5098445;28;1979;-42
2022/03/21 09:06:58;;;;;;;;;;;22.40;50.20;;;;;;5098609;28;975;-42
2022/03/21 09:09:24;;;;;;;;;;;22.30;50.20;;;;;;5098251;28;928;-42
2022/03/21 09:11:52;;;;;;;;;;;22.40;50.20;;;;;;5098611;28;943;-42
2022/03/21 09:14:20;;;;;;;;;;;22.40;50.20;;;;;;5099124;28;1001;-42
2022/03/21 09:16:49;;;;;;;;;;;22.30;50.10;;;;;;5098778;28;951;-42
2022/03/21 09:19:16;;;;;;;;;;;22.30;50.10;;;;;;5100205;28;949;-42
2022/03/21 09:21:43;;;;;;;;;;;22.30;50.00;;;;;;5098666;28;939;-43
2022/03/21 09:24:10;;;;;;;;;;;22.30;50.00;;;;;;5096950;28;1901;-42
2022/03/21 09:26:37;;;;;;;;;;;22.30;50.10;;;;;;5097449;28;969;-42
2022/03/21 09:29:05;;;;;;;;;;;22.30;50.50;;;;;;5095890;28;977;-43
2022/03/21 09:31:33;;;;;;;;;;;22.30;50.00;;;;;;5097758;28;881;-42
2022/03/21 09:34:00;;;;;;;;;;;22.30;50.00;;;;;;5096456;28;976;-43
2022/03/21 09:36:27;;;;;;;;;;;22.30;50.00;;;;;;5097325;28;936;-42
2022/03/21 09:38:54;;;;;;;;;;;22.30;50.00;;;;;;5097130;28;979;-42
2022/03/21 09:41:25;;;;;;;;;;;22.30;50.00;;;;;;5097286;28;939;-42
2022/03/21 09:43:52;;;;;;;;;;;22.30;50.00;;;;;;5094638;28;936;-42
2022/03/21 09:46:20;;;;;;;;;;;22.30;50.00;;;;;;5097078;28;2039;-42
2022/03/21 09:48:49;;;;;;;;;;;22.30;49.90;;;;;;5097979;28;883;-42
2022/03/21 09:51:20;;;;;;;;;;;22.30;50.00;;;;;;5096205;28;1804;-42
2022/03/21 09:53:47;;;;;;;;;;;22.30;49.90;;;;;;5096194;28;1888;-43
2022/03/21 09:56:14;;;;;;;;;;;22.30;49.80;;;;;;5096773;28;1020;-42
2022/03/21 09:58:41;;;;;;;;;;;22.30;49.90;;;;;;5097144;28;968;-42
2022/03/21 10:01:08;;;;;;;;;;;22.30;49.90;;;;;;5095868;28;869;-42
2022/03/21 10:03:35;;;;;;;;;;;22.30;49.90;;;;;;5095142;28;1121;-42
2022/03/21 10:06:23;;;;;;;;;;;22.20;49.90;;;;;;5096276;28;1898;-42
2022/03/21 10:08:50;;;;;;;;;;;22.30;50.00;;;;;;5096777;28;1325;-43
2022/03/21 10:11:22;;;;;;;;;;;22.20;50.00;;;;;;5097989;28;940;-43
2022/03/21 10:13:49;;;;;;;;;;;22.30;50.10;;;;;;5097731;28;1839;-42
2022/03/21 10:16:16;;;;;;;;;;;22.30;49.90;;;;;;5095772;28;979;-42
2022/03/21 10:18:56;;;;;;;;;;;22.30;50.00;;;;;;5095778;28;953;-42
2022/03/21 10:21:25;;;;;;;;;;;22.30;50.00;;;;;;5095205;28;1020;-42
2022/03/21 10:23:58;;;;;;;;;;;22.30;50.10;;;;;;5095377;28;1004;-42
2022/03/21 10:26:26;;;;;;;;;;;22.30;50.10;;;;;;5095548;28;1901;-43
2022/03/21 10:28:54;;;;;;;;;;;22.30;50.00;;;;;;5096849;28;980;-41
2022/03/21 10:31:34;;;;;;;;;;;22.30;50.10;;;;;;5095024;28;908;-41
2022/03/21 10:34:01;;;;;;;;;;;22.30;51.30;;;;;;5096739;28;976;-41
2022/03/21 10:36:29;;;;;;;;;;;22.30;50.00;;;;;;5096469;28;936;-41
2022/03/21 10:39:06;;;;;;;;;;;22.30;50.00;;;;;;5096228;28;1024;-41
2022/03/21 10:41:34;;;;;;;;;;;22.30;50.00;;;;;;5096927;28;1003;-41
2022/03/21 10:44:01;;;;;;;;;;;22.30;50.00;;;;;;5097950;28;936;-43
2022/03/21 10:46:28;;;;;;;;;;;22.30;50.00;;;;;;5094668;28;1902;-41
2022/03/21 10:49:01;;;;;;;;;;;22.30;49.90;;;;;;5096672;28;969;-41
2022/03/21 10:51:46;;;;;;;;;;;22.30;49.90;;;;;;5095507;28;1107;-41
2022/03/21 10:54:34;;;;;;;;;;;22.30;50.00;;;;;;5094549;28;968;-42
2022/03/21 10:57:01;;;;;;;;;;;22.30;50.00;;;;;;5095134;28;1020;-41
2022/03/21 10:59:28;;;;;;;;;;;22.30;50.00;;;;;;5097088;28;960;-41
2022/03/21 11:02:09;;;;;;;;;;;22.30;50.00;;;;;;5096737;28;1070;-41
2022/03/21 11:04:36;;;;;;;;;;;22.30;50.00;;;;;;5095570;28;1012;-41
2022/03/21 11:07:05;;;;;;;;;;;22.30;50.00;;;;;;5089710;28;1914;-41
2022/03/21 11:09:32;;;;;;;;;;;22.30;51.10;;;;;;5095234;28;920;-43
2022/03/21 11:11:59;;;;;;;;;;;22.30;50.00;;;;;;5095376;28;968;-41
2022/03/21 11:14:26;;;;;;;;;;;22.30;50.00;;;;;;5097447;28;1015;-41
2022/03/21 11:16:53;;;;;;;;;;;22.30;50.00;;;;;;5095551;28;1851;-41
2022/03/21 11:19:20;;;;;;;;;;;22.30;50.00;;;;;;5095828;28;1005;-41
2022/03/21 11:21:48;;;;;;;;;;;22.30;50.00;;;;;;5096887;28;972;-41
2022/03/21 11:24:17;;;;;;;;;;;22.30;50.00;;;;;;5096629;28;1208;-41
2022/03/21 11:26:47;;;;;;;;;;;22.30;50.00;;;;;;5096586;28;1977;-41
2022/03/21 11:29:27;;;;;;;;;;;22.30;49.90;;;;;;5093186;28;1019;-41
2022/03/21 11:32:09;;;;;;;;;;;22.30;50.00;;;;;;5094984;28;948;-41
2022/03/21 11:34:43;;;;;;;;;;;22.30;50.00;;;;;;5091238;28;1852;-41
2022/03/21 11:37:24;;;;;;;;;;;22.30;50.00;;;;;;5095489;28;936;-42
2022/03/21 11:40:12;;;;;;;;;;;22.30;49.90;;;;;;5095364;28;980;-41
2022/03/21 11:42:39;;;;;;;;;;;22.30;49.90;;;;;;5096724;28;2400;-42
2022/03/21 11:45:21;;;;;;;;;;;22.30;49.90;;;;;;5095581;28;1914;-41
2022/03/21 11:47:47;;;;;;;;;;;22.30;49.90;;;;;;5091808;28;1025;-42
2022/03/21 11:50:25;;;;;;;;;;;22.30;49.90;;;;;;5094113;28;1015;-41
2022/03/21 11:53:05;;;;;;;;;;;22.30;49.80;;;;;;5093079;28;996;-41
2022/03/21 11:55:37;;;;;;;;;;;22.30;49.90;;;;;;5094367;28;996;-41
2022/03/21 11:58:23;;;;;;;;;;;22.30;49.70;;;;;;5095163;28;997;-41
2022/03/21 12:01:05;;;;;;;;;;;22.40;49.80;;;;;;5094770;28;1019;-41
2022/03/21 12:03:32;;;;;;;;;;;22.40;49.80;;;;;;5092545;28;984;-41
2022/03/21 12:06:19;;;;;;;;;;;22.40;49.70;;;;;;5092851;28;1922;-41
2022/03/21 12:08:50;;;;;;;;;;;22.40;49.80;;;;;;5092128;28;994;-41
2022/03/21 12:11:50;;;;;;;;;;;22.40;49.80;;;;;;5092399;28;1118;-41
2022/03/21 12:14:28;;;;;;;;;;;22.40;49.80;;;;;;5092903;28;1214;-41
2022/03/21 12:17:14;;;;;;;;;;;22.40;49.90;;;;;;5091262;28;897;-41
2022/03/21 12:20:03;;;;;;;;;;;22.30;49.90;;;;;;5095890;28;1038;-41
2022/03/21 12:22:33;;;;;;;;;;;22.30;49.80;;;;;;5098020;28;999;-41
2022/03/21 12:25:00;;;;;;;;;;;22.30;49.80;;;;;;5099328;28;1407;-41
2022/03/21 12:27:30;;;;;;;;;;;22.40;49.80;;;;;;5098304;28;1905;-41
2022/03/21 12:30:29;;;;;;;;;;;22.30;49.90;;;;;;5099560;28;1167;-41
2022/03/21 12:32:56;;;;;;;;;;;22.40;49.90;;;;;;5099109;28;944;-41
2022/03/21 12:35:47;;;;;;;;;;;22.40;50.90;;;;;;5099137;28;989;-41
2022/03/21 12:38:16;;;;;;;;;;;22.40;49.80;;;;;;5099199;28;1659;-41
2022/03/21 12:40:50;;;;;;;;;;;22.40;49.90;;;;;;5098983;28;1014;-41
2022/03/21 12:43:18;;;;;;;;;;;22.30;49.90;;;;;;5097141;28;970;-41
2022/03/21 12:45:47;;;;;;;;;;;22.40;49.80;;;;;;5097182;28;2008;-41
2022/03/21 12:48:16;;;;;;;;;;;22.40;49.80;;;;;;5096244;28;902;-41
2022/03/21 12:50:42;;;;;;;;;;;22.30;49.70;;;;;;5095940;28;1043;-41
2022/03/21 12:53:10;;;;;;;;;;;22.30;49.70;;;;;;5098403;28;1011;-41
2022/03/21 12:55:38;;;;;;;;;;;22.40;49.90;;;;;;5097802;28;935;-41
2022/03/21 12:58:06;;;;;;;;;;;22.40;49.90;;;;;;5097529;28;952;-41
2022/03/21 13:00:34;;;;;;;;;;;22.40;49.70;;;;;;5097358;28;957;-41
2022/03/21 13:03:05;;;;;;;;;;;22.40;49.80;;;;;;5094582;28;944;-41
2022/03/21 13:11:20;;;;;;;;;;;22.40;49.90;;;;;;5097904;28;713;-41
2022/03/21 13:13:52;;;;;;;;;;;22.40;49.90;;;;;;5095417;28;978;-41
2022/03/21 13:16:20;;;;;;;;;;;22.40;49.90;;;;;;5098649;28;746;-41
2022/03/21 13:18:48;;;;;;;;;;;22.40;50.10;;;;;;5097492;28;929;-41
2022/03/21 13:21:15;;;;;;;;;;;22.40;50.00;;;;;;5097626;28;1002;-41
2022/03/21 13:23:44;;;;;;;;;;;22.40;49.90;;;;;;5099211;28;1117;-41
2022/03/21 13:26:11;;;;;;;;;;;22.40;50.00;;;;;;5097367;28;1898;-41
2022/03/21 13:28:39;;;;;;;;;;;22.40;50.00;;;;;;5097208;28;892;-41
2022/03/21 13:31:09;;;;;;;;;;;22.40;50.00;;;;;;5096648;28;990;-41
2022/03/21 13:33:38;;;;;;;;;;;22.40;50.10;;;;;;5095946;28;1008;-41
2022/03/21 13:36:07;;;;;;;;;;;22.40;50.00;;;;;;5095969;28;1067;-42
2022/03/21 13:38:34;;;;;;;;;;;22.40;50.00;;;;;;5096371;28;968;-42
2022/03/21 13:41:02;;;;;;;;;;;22.40;49.90;;;;;;5097280;28;1148;-39
2022/03/21 13:43:29;;;;;;;;;;;22.40;49.90;;;;;;5095645;28;932;-39
2022/03/21 13:45:57;;;;;;;;;;;22.50;49.90;;;;;;5096269;28;1901;-38
2022/03/21 13:48:33;;;;;;;;;;;22.50;50.00;;;;;;5095318;28;955;-39
2022/03/21 13:51:01;;;;;;;;;;;22.50;50.00;;;;;;5095970;28;1166;-39
2022/03/21 13:53:29;;;;;;;;;;;22.50;49.90;;;;;;5095345;28;1008;-39
2022/03/21 13:55:57;;;;;;;;;;;22.50;49.90;;;;;;5094783;28;1438;-39
2022/03/21 13:58:25;;;;;;;;;;;22.50;49.90;;;;;;5095217;28;895;-38
2022/03/21 14:00:52;;;;;;;;;;;22.50;49.90;;;;;;5095065;28;1022;-38
2022/03/21 14:03:31;;;;;;;;;;;22.50;49.90;;;;;;5095503;28;1019;-39
2022/03/21 14:05:58;;;;;;;;;;;22.50;49.90;;;;;;5096127;28;1898;-39
2022/03/21 14:08:25;;;;;;;;;;;22.50;49.80;;;;;;5096501;28;1070;-39
2022/03/21 14:10:53;;;;;;;;;;;22.50;49.80;;;;;;5095436;28;1119;-39
2022/03/21 14:13:23;;;;;;;;;;;22.50;49.80;;;;;;5096193;28;845;-39
2022/03/21 14:15:51;;;;;;;;;;;22.60;49.80;;;;;;5096318;28;984;-39
2022/03/21 14:18:18;;;;;;;;;;;22.60;49.80;;;;;;5093791;28;896;-39
2022/03/21 14:20:45;;;;;;;;;;;22.60;49.80;;;;;;5093967;28;1242;-39
2022/03/21 14:23:12;;;;;;;;;;;22.60;49.80;;;;;;5095468;28;915;-38
2022/03/21 14:28:24;;;;;;;;;;;22.60;49.80;;;;;;5096202;28;729;-39
2022/03/21 14:30:51;;;;;;;;;;;22.60;49.70;;;;;;5096099;28;909;-39
2022/03/21 14:33:17;;;;;;;;;;;22.60;49.80;;;;;;5095267;28;961;-39
2022/03/21 14:35:45;;;;;;;;;;;22.60;49.70;;;;;;5095042;28;864;-39
2022/03/21 14:38:12;;;;;;;;;;;22.70;49.80;;;;;;5094305;28;1015;-38
2022/03/21 14:40:38;;;;;;;;;;;22.70;49.80;;;;;;5096205;28;998;-39
2022/03/21 14:43:06;;;;;;;;;;;22.70;49.80;;;;;;5093164;28;1121;-39
2022/03/21 14:45:34;;;;;;;;;;;22.70;49.80;;;;;;5094878;28;1145;-39
2022/03/21 14:48:01;;;;;;;;;;;22.70;49.70;;;;;;5094722;28;1986;-39
2022/03/21 14:50:28;;;;;;;;;;;22.70;49.60;;;;;;5095136;28;1047;-39
2022/03/21 14:52:57;;;;;;;;;;;22.70;49.60;;;;;;5094470;28;929;-39
2022/03/21 14:55:23;;;;;;;;;;;22.80;49.60;;;;;;5092948;28;1023;-39
2022/03/21 14:57:50;;;;;;;;;;;22.80;49.60;;;;;;5093829;28;900;-39
2022/03/21 15:00:17;;;;;;;;;;;22.80;49.60;;;;;;5093506;28;1015;-39
2022/03/21 15:02:46;;;;;;;;;;;22.80;49.50;;;;;;5093103;28;1855;-39
2022/03/21 15:05:12;;;;;;;;;;;22.80;49.40;;;;;;5091470;28;980;-39
2022/03/21 15:07:39;;;;;;;;;;;22.80;49.40;;;;;;5093548;28;1902;-39
2022/03/21 15:10:22;;;;;;;;;;;22.80;49.40;;;;;;5092573;28;999;-39
2022/03/21 15:12:50;;;;;;;;;;;22.80;49.40;;;;;;5093156;28;996;-38
2022/03/21 15:15:17;;;;;;;;;;;22.90;49.40;;;;;;5092048;28;1226;-38